Time;durP1;ratioP1;P1;durP2;ratioP2;P2;SDS_P1;SDS_P2;PMS_P1;PMS_P2;Temp;Humidity;BMP_temperature;BMP_pressure;BME280_temperature;BME280_humidity;BME280_pressure;Samples;Min_cycle;Max_cycle;Signal;HPM_P1;HPM_P2
2021/01/05 00:00:13;;;;;;;5.78;4.13;;;;;;;;;;5093319;28;20195;-72
2021/01/05 00:02:39;;;;;;;6.05;4.13;;;;;;;;;;5093626;28;20179;-72
2021/01/05 00:05:06;;;;;;;5.78;3.90;;;;;;;;;;5093046;28;20537;-70
2021/01/05 00:07:32;;;;;;;6.40;3.85;;;;;;;;;;5073759;28;20251;-73
2021/01/05 00:09:58;;;;;;;5.53;3.60;;;;;;;;;;5096937;28;20170;-73
2021/01/05 00:12:24;;;;;;;4.40;3.47;;;;;;;;;;5074221;28;20591;-73
2021/01/05 00:14:50;;;;;;;4.60;3.08;;;;;;;;;;5072836;28;20242;-70
2021/01/05 00:17:17;;;;;;;3.88;3.22;;;;;;;;;;5079218;28;20172;-73
2021/01/05 00:19:44;;;;;;;3.50;3.20;;;;;;;;;;5093759;28;20175;-70
2021/01/05 00:22:10;;;;;;;6.25;3.50;;;;;;;;;;5093291;28;20530;-72
2021/01/05 00:24:36;;;;;;;5.93;3.25;;;;;;;;;;5093167;28;20168;-71
2021/01/05 00:27:03;;;;;;;5.10;3.05;;;;;;;;;;5091299;28;20179;-71
2021/01/05 00:29:29;;;;;;;4.05;3.22;;;;;;;;;;5080031;28;20515;-72
2021/01/05 00:32:13;;;;;;;6.72;3.47;;;;;;;;;;5073027;28;20234;-72
2021/01/05 00:34:40;;;;;;;4.72;3.70;;;;;;;;;;5072353;28;20221;-71
2021/01/05 00:37:06;;;;;;;3.80;3.30;;;;;;;;;;5072869;28;20176;-74
2021/01/05 00:39:32;;;;;;;4.78;3.85;;;;;;;;;;5073030;28;20168;-70
2021/01/05 00:41:58;;;;;;;4.65;3.67;;;;;;;;;;5086178;28;20202;-72
2021/01/05 00:44:24;;;;;;;5.32;3.72;;;;;;;;;;5072650;28;20609;-70
2021/01/05 00:46:57;;;;;;;6.03;3.20;;;;;;;;;;5072762;28;20180;-69
2021/01/05 00:49:23;;;;;;;4.13;3.03;;;;;;;;;;5078899;28;20572;-71
2021/01/05 00:51:49;;;;;;;4.22;3.50;;;;;;;;;;5088258;28;20210;-73
2021/01/05 00:54:15;;;;;;;4.93;3.15;;;;;;;;;;5092353;28;20525;-71
2021/01/05 00:56:41;;;;;;;4.43;3.15;;;;;;;;;;5076019;28;20175;-73
2021/01/05 00:59:07;;;;;;;4.22;3.58;;;;;;;;;;5072864;28;20168;-70
2021/01/05 01:01:33;;;;;;;3.88;2.97;;;;;;;;;;5073110;28;20196;-70
2021/01/05 01:03:59;;;;;;;5.10;3.03;;;;;;;;;;5072569;28;20199;-73
2021/01/05 01:06:25;;;;;;;5.07;2.90;;;;;;;;;;5073225;28;20648;-73
2021/01/05 01:08:51;;;;;;;4.75;3.17;;;;;;;;;;5076707;28;20184;-70
2021/01/05 01:11:18;;;;;;;5.65;3.20;;;;;;;;;;5079454;28;20251;-72
2021/01/05 01:13:44;;;;;;;3.80;3.05;;;;;;;;;;5070961;28;20176;-69
2021/01/05 01:16:10;;;;;;;4.72;3.50;;;;;;;;;;5072471;28;20200;-71
2021/01/05 01:18:36;;;;;;;4.65;3.65;;;;;;;;;;5082438;28;20247;-73
2021/01/05 01:21:03;;;;;;;3.97;3.15;;;;;;;;;;5092916;28;20568;-73
2021/01/05 01:23:29;;;;;;;3.60;2.72;;;;;;;;;;5092747;28;20584;-72
2021/01/05 01:25:55;;;;;;;5.35;3.15;;;;;;;;;;5092939;28;20179;-73
2021/01/05 01:28:21;;;;;;;3.97;3.22;;;;;;;;;;5092577;28;21017;-72
2021/01/05 01:30:48;;;;;;;3.90;3.13;;;;;;;;;;5074520;28;20211;-71
2021/01/05 01:33:14;;;;;;;4.13;3.00;;;;;;;;;;5081239;28;20172;-72
2021/01/05 01:35:40;;;;;;;4.32;2.90;;;;;;;;;;5071827;28;20207;-73
2021/01/05 01:38:06;;;;;;;3.88;2.85;;;;;;;;;;5072853;28;20183;-73
2021/01/05 01:40:40;;;;;;;4.88;3.17;;;;;;;;;;5074747;28;20197;-71
2021/01/05 01:43:06;;;;;;;3.88;2.95;;;;;;;;;;5077414;28;20180;-71
2021/01/05 01:45:33;;;;;;;3.63;2.95;;;;;;;;;;5075323;28;20633;-72
2021/01/05 01:48:00;;;;;;;4.38;3.03;;;;;;;;;;5075832;28;20289;-73
2021/01/05 01:50:28;;;;;;;3.70;2.90;;;;;;;;;;5075351;28;20673;-74
2021/01/05 01:53:02;;;;;;;3.92;3.03;;;;;;;;;;5075479;28;20506;-72
2021/01/05 01:55:37;;;;;;;3.17;2.88;;;;;;;;;;5075276;28;20199;-71
2021/01/05 01:58:22;;;;;;;4.10;2.70;;;;;;;;;;5075709;28;20633;-74
2021/01/05 02:01:07;;;;;;;3.40;2.80;;;;;;;;;;5075371;28;20196;-73
2021/01/05 02:03:53;;;;;;;3.50;3.03;;;;;;;;;;5085110;28;20559;-74
2021/01/05 02:06:19;;;;;;;3.17;2.80;;;;;;;;;;5086124;28;20656;-72
2021/01/05 02:08:45;;;;;;;4.20;3.35;;;;;;;;;;5089321;28;20195;-74
2021/01/05 02:11:19;;;;;;;4.30;3.30;;;;;;;;;;5084053;28;20241;-71
2021/01/05 02:13:50;;;;;;;3.85;3.45;;;;;;;;;;5085127;28;20180;-72
2021/01/05 02:16:21;;;;;;;3.80;3.40;;;;;;;;;;5095472;28;20259;-73
2021/01/05 02:18:53;;;;;;;3.83;3.40;;;;;;;;;;5089085;28;20220;-74
2021/01/05 02:21:25;;;;;;;3.53;3.20;;;;;;;;;;5089772;28;20204;-72
2021/01/05 02:23:54;;;;;;;3.80;3.05;;;;;;;;;;5091732;28;20567;-72
2021/01/05 02:26:32;;;;;;;4.82;3.05;;;;;;;;;;5077431;28;20247;-71
2021/01/05 02:29:01;;;;;;;3.88;3.40;;;;;;;;;;5085419;28;20195;-73
2021/01/05 02:31:50;;;;;;;5.50;4.38;;;;;;;;;;5089043;28;20215;-71
2021/01/05 02:34:16;;;;;;;3.70;3.40;;;;;;;;;;5089571;28;20192;-71
2021/01/05 02:36:54;;;;;;;4.28;3.70;;;;;;;;;;5085204;28;20178;-74
2021/01/05 02:39:20;;;;;;;4.82;3.58;;;;;;;;;;5092443;28;20195;-73
2021/01/05 02:42:05;;;;;;;5.60;3.72;;;;;;;;;;5094781;28;20187;-72
2021/01/05 02:44:40;;;;;;;4.45;3.67;;;;;;;;;;5093230;28;20175;-72
2021/01/05 02:47:12;;;;;;;5.07;3.50;;;;;;;;;;5092224;28;20183;-72
2021/01/05 02:49:41;;;;;;;4.55;4.15;;;;;;;;;;5082510;28;20176;-73
2021/01/05 02:52:26;;;;;;;5.40;3.40;;;;;;;;;;5085895;28;20203;-72
2021/01/05 02:55:04;;;;;;;6.55;3.92;;;;;;;;;;5094306;28;20199;-73
2021/01/05 02:57:48;;;;;;;5.00;4.00;;;;;;;;;;5092725;28;20937;-70
2021/01/05 03:00:17;;;;;;;3.80;3.22;;;;;;;;;;5094399;28;20256;-72
2021/01/05 03:03:14;;;;;;;3.90;3.50;;;;;;;;;;5077346;28;20168;-74
2021/01/05 03:05:51;;;;;;;4.50;3.70;;;;;;;;;;5076945;28;20546;-73
2021/01/05 03:08:20;;;;;;;4.03;3.53;;;;;;;;;;5084928;28;20199;-70
2021/01/05 03:10:46;;;;;;;4.88;4.20;;;;;;;;;;5086121;28;20196;-72
2021/01/05 03:13:18;;;;;;;6.35;4.25;;;;;;;;;;5077589;28;20538;-70
2021/01/05 03:16:02;;;;;;;3.95;3.55;;;;;;;;;;5080443;28;20215;-71
2021/01/05 03:18:36;;;;;;;4.75;3.60;;;;;;;;;;5083732;28;20203;-73
2021/01/05 03:21:09;;;;;;;6.90;4.18;;;;;;;;;;5089698;28;20235;-71
2021/01/05 03:23:35;;;;;;;5.63;3.70;;;;;;;;;;5085042;28;20168;-70
2021/01/05 03:26:03;;;;;;;5.00;3.95;;;;;;;;;;5089102;28;20183;-73
2021/01/05 03:28:30;;;;;;;5.10;4.70;;;;;;;;;;5090672;28;20186;-71
2021/01/05 03:30:59;;;;;;;5.00;4.20;;;;;;;;;;5077410;28;20200;-72
2021/01/05 03:33:25;;;;;;;5.13;3.92;;;;;;;;;;5086095;28;20544;-73
2021/01/05 03:35:51;;;;;;;6.00;4.35;;;;;;;;;;5092354;28;20291;-72
2021/01/05 03:38:17;;;;;;;6.10;4.70;;;;;;;;;;5093730;28;20631;-72
2021/01/05 03:40:43;;;;;;;4.30;3.90;;;;;;;;;;5087416;28;20556;-72
2021/01/05 03:43:09;;;;;;;10.30;4.55;;;;;;;;;;5074174;28;20173;-72
2021/01/05 03:45:35;;;;;;;7.30;4.40;;;;;;;;;;5074176;28;20180;-69
2021/01/05 03:48:01;;;;;;;4.97;4.45;;;;;;;;;;5074108;28;20525;-72
2021/01/05 03:50:27;;;;;;;5.90;4.57;;;;;;;;;;5073618;28;20208;-74
2021/01/05 03:52:54;;;;;;;5.38;4.55;;;;;;;;;;5084844;28;20632;-70
2021/01/05 03:55:20;;;;;;;5.22;4.70;;;;;;;;;;5092495;28;20261;-72
2021/01/05 03:57:46;;;;;;;6.03;4.55;;;;;;;;;;5093375;28;20250;-70
2021/01/05 04:00:28;;;;;;;5.43;4.70;;;;;;;;;;5092324;28;20217;-73
2021/01/05 04:02:55;;;;;;;6.50;4.65;;;;;;;;;;5091679;28;20201;-70
2021/01/05 04:05:21;;;;;;;6.40;4.95;;;;;;;;;;5073038;28;20200;-72
2021/01/05 04:07:47;;;;;;;6.05;5.32;;;;;;;;;;5085962;28;20197;-72
2021/01/05 04:10:14;;;;;;;5.82;4.40;;;;;;;;;;5085180;28;20704;-71
2021/01/05 04:12:41;;;;;;;5.43;4.93;;;;;;;;;;5072023;28;20187;-72
2021/01/05 04:15:08;;;;;;;6.85;5.85;;;;;;;;;;5072848;28;20204;-70
2021/01/05 04:17:34;;;;;;;7.63;5.38;;;;;;;;;;5077568;28;20176;-71
2021/01/05 04:20:00;;;;;;;10.35;5.43;;;;;;;;;;5092882;28;20250;-72
2021/01/05 04:22:26;;;;;;;7.43;5.70;;;;;;;;;;5077495;28;20537;-71
2021/01/05 04:24:52;;;;;;;6.00;5.00;;;;;;;;;;5075591;28;20184;-72
2021/01/05 04:27:18;;;;;;;7.50;5.43;;;;;;;;;;5077519;28;20184;-72
2021/01/05 04:29:44;;;;;;;5.28;4.72;;;;;;;;;;5080803;28;20176;-76
2021/01/05 04:32:11;;;;;;;6.38;5.15;;;;;;;;;;5073227;28;20706;-71
2021/01/05 04:34:37;;;;;;;6.90;5.03;;;;;;;;;;5084219;28;20200;-72
2021/01/05 04:37:03;;;;;;;6.72;5.50;;;;;;;;;;5086384;28;20212;-72
2021/01/05 04:39:29;;;;;;;7.70;5.70;;;;;;;;;;5072914;28;20176;-73
2021/01/05 04:41:59;;;;;;;7.03;5.90;;;;;;;;;;5091534;28;20279;-71
2021/01/05 04:44:26;;;;;;;6.15;5.15;;;;;;;;;;5079834;28;20180;-73
2021/01/05 04:46:57;;;;;;;7.10;5.40;;;;;;;;;;5084744;28;20723;-73
2021/01/05 04:49:47;;;;;;;6.65;5.80;;;;;;;;;;5072951;28;20613;-73
2021/01/05 04:52:16;;;;;;;6.75;5.20;;;;;;;;;;5082905;28;20270;-73
2021/01/05 04:54:51;;;;;;;8.13;5.35;;;;;;;;;;5092663;28;20195;-72
2021/01/05 04:57:23;;;;;;;7.05;5.60;;;;;;;;;;5084670;28;20174;-72
2021/01/05 05:00:07;;;;;;;6.53;5.53;;;;;;;;;;5092642;28;20176;-73
2021/01/05 05:02:56;;;;;;;6.68;5.15;;;;;;;;;;5090566;28;20184;-71
2021/01/05 05:05:50;;;;;;;8.07;5.55;;;;;;;;;;5074462;28;20189;-72
2021/01/05 05:08:25;;;;;;;7.10;5.40;;;;;;;;;;5083173;28;20530;-74
2021/01/05 05:10:53;;;;;;;6.93;5.78;;;;;;;;;;5078906;28;20200;-70
2021/01/05 05:13:25;;;;;;;7.30;5.35;;;;;;;;;;5080070;28;20187;-71
2021/01/05 05:15:51;;;;;;;7.18;5.25;;;;;;;;;;5090662;28;20292;-72
2021/01/05 05:18:17;;;;;;;6.97;6.00;;;;;;;;;;5087452;28;20351;-73
2021/01/05 05:21:06;;;;;;;7.57;6.30;;;;;;;;;;5077578;28;20188;-72
2021/01/05 05:23:47;;;;;;;6.78;6.07;;;;;;;;;;5083636;28;20255;-74
2021/01/05 05:26:25;;;;;;;8.70;6.28;;;;;;;;;;5076081;28;20571;-74
2021/01/05 05:28:51;;;;;;;7.53;5.80;;;;;;;;;;5084783;28;20179;-73
2021/01/05 05:31:19;;;;;;;8.43;6.13;;;;;;;;;;5092871;28;20584;-72
2021/01/05 05:33:48;;;;;;;7.38;6.45;;;;;;;;;;5095879;28;20179;-73
2021/01/05 05:36:20;;;;;;;8.95;6.15;;;;;;;;;;5084870;28;20191;-73
2021/01/05 05:38:56;;;;;;;8.95;6.85;;;;;;;;;;5079480;28;20179;-70
2021/01/05 05:41:22;;;;;;;7.90;6.72;;;;;;;;;;5095798;28;20206;-71
2021/01/05 05:44:15;;;;;;;11.02;8.05;;;;;;;;;;5089251;28;20175;-72
2021/01/05 05:46:44;;;;;;;8.68;7.13;;;;;;;;;;5091806;28;20168;-74
2021/01/05 05:49:24;;;;;;;7.65;6.85;;;;;;;;;;5075526;28;20177;-71
2021/01/05 05:51:52;;;;;;;8.20;5.85;;;;;;;;;;5095445;28;20544;-71
2021/01/05 05:54:21;;;;;;;7.10;6.20;;;;;;;;;;5095243;28;20244;-72
2021/01/05 05:56:47;;;;;;;6.68;5.90;;;;;;;;;;5088856;28;20172;-74
2021/01/05 05:59:13;;;;;;;8.02;6.53;;;;;;;;;;5090499;28;20656;-72
2021/01/05 06:01:40;;;;;;;8.55;6.22;;;;;;;;;;5075143;28;20196;-74
2021/01/05 06:04:07;;;;;;;11.60;7.05;;;;;;;;;;5074995;28;20172;-73
2021/01/05 06:06:34;;;;;;;7.57;6.47;;;;;;;;;;5085875;28;20310;-71
2021/01/05 06:09:00;;;;;;;7.68;6.65;;;;;;;;;;5089572;28;20253;-73
2021/01/05 06:11:26;;;;;;;8.77;6.90;;;;;;;;;;5088081;28;20234;-74
2021/01/05 06:13:52;;;;;;;10.63;6.88;;;;;;;;;;5075696;28;20176;-72
2021/01/05 06:16:18;;;;;;;11.25;8.45;;;;;;;;;;5075326;28;20199;-71
2021/01/05 06:18:44;;;;;;;27.58;17.05;;;;;;;;;;5088392;28;20172;-72
2021/01/05 06:21:10;;;;;;;10.98;7.80;;;;;;;;;;5075388;28;20204;-72
2021/01/05 06:23:36;;;;;;;10.00;8.40;;;;;;;;;;5088141;28;20636;-75
2021/01/05 06:26:02;;;;;;;10.77;8.38;;;;;;;;;;5084064;28;20518;-71
2021/01/05 06:28:28;;;;;;;12.55;10.05;;;;;;;;;;5094915;28;20175;-72
2021/01/05 06:30:54;;;;;;;13.98;9.95;;;;;;;;;;5094631;28;20286;-73
2021/01/05 06:33:20;;;;;;;13.00;10.20;;;;;;;;;;5091606;28;20566;-73
2021/01/05 06:35:46;;;;;;;14.88;9.93;;;;;;;;;;5094461;28;20713;-71
2021/01/05 06:38:12;;;;;;;12.73;8.90;;;;;;;;;;5095174;28;20263;-70
2021/01/05 06:40:38;;;;;;;12.13;9.70;;;;;;;;;;5081759;28;20683;-72
2021/01/05 06:43:05;;;;;;;10.27;8.00;;;;;;;;;;5081622;28;20168;-73
2021/01/05 06:45:32;;;;;;;11.05;7.90;;;;;;;;;;5074471;28;20176;-72
2021/01/05 06:47:59;;;;;;;12.35;7.90;;;;;;;;;;5078258;28;20490;-74
2021/01/05 06:50:26;;;;;;;12.70;7.90;;;;;;;;;;5074575;28;20216;-74
2021/01/05 06:52:52;;;;;;;12.38;7.78;;;;;;;;;;5074847;28;20254;-74
2021/01/05 06:55:18;;;;;;;10.90;8.43;;;;;;;;;;5092589;28;20681;-73
2021/01/05 06:57:45;;;;;;;10.80;8.32;;;;;;;;;;5089049;28;20163;-73
2021/01/05 07:00:16;;;;;;;9.32;7.25;;;;;;;;;;5087738;28;20603;-72
2021/01/05 07:02:42;;;;;;;9.70;7.22;;;;;;;;;;5094473;28;20171;-73
2021/01/05 07:05:08;;;;;;;9.18;7.88;;;;;;;;;;5086234;28;20176;-74
2021/01/05 07:07:34;;;;;;;9.85;7.55;;;;;;;;;;5088364;28;20195;-73
2021/01/05 07:10:00;;;;;;;9.25;7.35;;;;;;;;;;5090679;28;20213;-75
2021/01/05 07:12:26;;;;;;;12.27;8.38;;;;;;;;;;5074043;28;20280;-75
2021/01/05 07:14:52;;;;;;;10.35;7.75;;;;;;;;;;5073480;28;20648;-74
2021/01/05 07:17:18;;;;;;;9.20;7.45;;;;;;;;;;5074968;28;20188;-73
2021/01/05 07:19:44;;;;;;;10.05;7.20;;;;;;;;;;5094503;28;20171;-72
2021/01/05 07:22:11;;;;;;;8.77;6.85;;;;;;;;;;5080572;28;20196;-72
2021/01/05 07:24:37;;;;;;;11.32;8.05;;;;;;;;;;5094059;28;20187;-72
2021/01/05 07:27:04;;;;;;;9.80;7.82;;;;;;;;;;5094034;28;20167;-72
2021/01/05 07:29:30;;;;;;;9.80;7.10;;;;;;;;;;5085661;28;20172;-74
2021/01/05 07:31:56;;;;;;;9.07;7.13;;;;;;;;;;5078090;28;20195;-72
2021/01/05 07:34:22;;;;;;;9.15;7.05;;;;;;;;;;5093690;28;20195;-73
2021/01/05 07:36:50;;;;;;;10.98;7.72;;;;;;;;;;5093000;28;20209;-73
2021/01/05 07:39:20;;;;;;;10.05;7.25;;;;;;;;;;5084265;28;20182;-72
2021/01/05 07:41:46;;;;;;;9.65;7.95;;;;;;;;;;5076188;28;20192;-72
2021/01/05 07:44:13;;;;;;;10.57;8.05;;;;;;;;;;5072526;28;20251;-73
2021/01/05 07:46:39;;;;;;;9.93;7.47;;;;;;;;;;5089075;28;20194;-72
2021/01/05 07:49:05;;;;;;;8.57;6.55;;;;;;;;;;5079305;28;20258;-75
2021/01/05 07:51:31;;;;;;;11.38;9.07;;;;;;;;;;5083897;28;20573;-74
2021/01/05 07:53:57;;;;;;;10.18;7.45;;;;;;;;;;5069304;28;20685;-75
2021/01/05 07:56:23;;;;;;;10.50;8.07;;;;;;;;;;5081865;28;20187;-74
2021/01/05 07:58:49;;;;;;;12.63;8.25;;;;;;;;;;5088590;28;20182;-74
2021/01/05 08:01:15;;;;;;;10.88;7.95;;;;;;;;;;5088901;28;20274;-75
2021/01/05 08:03:41;;;;;;;12.27;7.68;;;;;;;;;;5088848;28;20183;-72
2021/01/05 08:06:07;;;;;;;8.20;7.20;;;;;;;;;;5069620;28;20183;-74
2021/01/05 08:08:33;;;;;;;10.82;7.95;;;;;;;;;;5090556;28;20586;-74
2021/01/05 08:11:00;;;;;;;11.88;8.00;;;;;;;;;;5073003;28;20635;-74
2021/01/05 08:13:26;;;;;;;11.13;7.68;;;;;;;;;;5085078;28;20183;-73
2021/01/05 08:15:52;;;;;;;14.35;11.23;;;;;;;;;;5071430;28;20242;-72
2021/01/05 08:18:18;;;;;;;9.45;7.90;;;;;;;;;;5078739;28;20204;-73
2021/01/05 08:20:44;;;;;;;9.93;8.07;;;;;;;;;;5086950;28;20203;-73
2021/01/05 08:23:10;;;;;;;10.45;7.65;;;;;;;;;;5090082;28;20159;-73
2021/01/05 08:25:36;;;;;;;10.60;7.57;;;;;;;;;;5077414;28;20183;-75
2021/01/05 08:28:02;;;;;;;10.75;8.02;;;;;;;;;;5090873;28;20211;-72
2021/01/05 08:30:29;;;;;;;10.63;8.10;;;;;;;;;;5085606;28;20242;-77
2021/01/05 08:32:58;;;;;;;12.85;7.97;;;;;;;;;;5082125;28;20638;-72
2021/01/05 08:35:25;;;;;;;9.57;7.80;;;;;;;;;;5080665;28;20202;-73
2021/01/05 08:37:51;;;;;;;10.25;7.90;;;;;;;;;;5077557;28;20176;-75
2021/01/05 08:40:19;;;;;;;8.40;7.18;;;;;;;;;;5087680;28;20289;-73
2021/01/05 08:42:45;;;;;;;9.70;7.70;;;;;;;;;;5089433;28;20203;-72
2021/01/05 08:45:11;;;;;;;9.48;7.32;;;;;;;;;;5088714;28;20185;-75
2021/01/05 08:47:37;;;;;;;9.88;7.03;;;;;;;;;;5088903;28;20266;-73
2021/01/05 08:50:04;;;;;;;9.40;6.93;;;;;;;;;;5092325;28;20932;-74
2021/01/05 08:52:31;;;;;;;8.95;7.40;;;;;;;;;;5093021;28;20182;-73
2021/01/05 08:54:57;;;;;;;9.88;7.43;;;;;;;;;;5090792;28;20614;-74
2021/01/05 08:57:23;;;;;;;9.30;6.80;;;;;;;;;;5092808;28;20180;-74
2021/01/05 08:59:49;;;;;;;8.45;7.05;;;;;;;;;;5092562;28;20179;-72
2021/01/05 09:02:16;;;;;;;10.27;7.55;;;;;;;;;;5092964;28;20179;-74
2021/01/05 09:04:42;;;;;;;11.82;8.00;;;;;;;;;;5092297;28;20222;-74
2021/01/05 09:07:08;;;;;;;9.80;6.43;;;;;;;;;;5092465;28;20203;-72
2021/01/05 09:09:34;;;;;;;7.82;7.03;;;;;;;;;;5091275;28;20183;-72
2021/01/05 09:12:01;;;;;;;9.75;7.00;;;;;;;;;;5092934;28;20282;-72
2021/01/05 09:14:27;;;;;;;8.25;6.55;;;;;;;;;;5091868;28;20206;-73
2021/01/05 09:17:00;;;;;;;8.05;6.20;;;;;;;;;;5088676;28;20179;-73
2021/01/05 09:19:27;;;;;;;9.55;6.50;;;;;;;;;;5085301;28;20182;-71
2021/01/05 09:21:53;;;;;;;6.75;6.05;;;;;;;;;;5092385;28;20196;-75
2021/01/05 09:24:19;;;;;;;9.43;7.75;;;;;;;;;;5092287;28;20196;-75
2021/01/05 09:26:45;;;;;;;7.38;6.57;;;;;;;;;;5092461;28;20521;-72
2021/01/05 09:29:13;;;;;;;8.88;6.35;;;;;;;;;;5083915;28;20180;-74
2021/01/05 09:31:47;;;;;;;9.25;6.60;;;;;;;;;;5084655;28;20284;-75
2021/01/05 09:34:14;;;;;;;8.95;6.80;;;;;;;;;;5078719;28;20195;-74
2021/01/05 09:36:40;;;;;;;6.75;6.05;;;;;;;;;;5089086;28;20167;-75
2021/01/05 09:39:07;;;;;;;14.48;7.70;;;;;;;;;;5093404;28;20201;-73
2021/01/05 09:41:36;;;;;;;8.35;7.00;;;;;;;;;;5075835;28;20202;-71
2021/01/05 09:44:02;;;;;;;10.90;6.63;;;;;;;;;;5072530;28;20172;-75
2021/01/05 09:46:28;;;;;;;8.60;7.50;;;;;;;;;;5073621;28;20533;-75
2021/01/05 09:48:54;;;;;;;9.35;7.38;;;;;;;;;;5071242;28;20180;-72
2021/01/05 09:51:24;;;;;;;9.00;6.80;;;;;;;;;;5071978;28;20200;-74
2021/01/05 09:53:50;;;;;;;7.40;6.65;;;;;;;;;;5083682;28;20497;-72
2021/01/05 09:56:17;;;;;;;8.13;6.93;;;;;;;;;;5086321;28;20535;-75
2021/01/05 09:58:43;;;;;;;8.25;6.80;;;;;;;;;;5084003;28;20187;-74
2021/01/05 10:01:09;;;;;;;10.60;7.25;;;;;;;;;;5089316;28;20213;-74
2021/01/05 10:03:35;;;;;;;10.07;7.45;;;;;;;;;;5091563;28;20179;-74
2021/01/05 10:06:01;;;;;;;8.93;7.20;;;;;;;;;;5086910;28;20180;-74
2021/01/05 10:08:27;;;;;;;7.85;7.00;;;;;;;;;;5071723;28;20188;-73
2021/01/05 10:10:53;;;;;;;7.68;6.82;;;;;;;;;;5089671;28;20548;-73
2021/01/05 10:13:19;;;;;;;7.78;6.18;;;;;;;;;;5081375;28;20184;-74
2021/01/05 10:15:45;;;;;;;10.43;6.95;;;;;;;;;;5073790;28;20207;-75
2021/01/05 10:18:12;;;;;;;9.10;7.00;;;;;;;;;;5083093;28;20167;-74
2021/01/05 10:20:38;;;;;;;7.95;6.65;;;;;;;;;;5091045;28;20271;-72
2021/01/05 10:23:04;;;;;;;8.80;6.53;;;;;;;;;;5091236;28;20179;-73
2021/01/05 10:25:30;;;;;;;10.02;7.53;;;;;;;;;;5089251;28;20544;-73
2021/01/05 10:27:56;;;;;;;7.43;6.53;;;;;;;;;;5089969;28;20187;-75
2021/01/05 10:30:22;;;;;;;8.27;6.53;;;;;;;;;;5089787;28;20206;-73
2021/01/05 10:32:48;;;;;;;7.68;5.85;;;;;;;;;;5079957;28;20177;-72
2021/01/05 10:35:15;;;;;;;6.65;5.82;;;;;;;;;;5081411;28;20295;-73
2021/01/05 10:37:41;;;;;;;8.65;6.65;;;;;;;;;;5072840;28;20231;-75
2021/01/05 10:40:08;;;;;;;7.53;6.18;;;;;;;;;;5081095;28;20539;-75
2021/01/05 10:42:34;;;;;;;10.18;6.15;;;;;;;;;;5076501;28;20174;-74
2021/01/05 10:45:00;;;;;;;7.80;6.25;;;;;;;;;;5089072;28;20727;-76
2021/01/05 10:47:26;;;;;;;8.32;5.82;;;;;;;;;;5089398;28;20244;-73
2021/01/05 10:49:52;;;;;;;6.93;5.82;;;;;;;;;;5090641;28;20187;-74
2021/01/05 10:52:18;;;;;;;6.53;5.65;;;;;;;;;;5076948;28;20176;-74
2021/01/05 10:54:45;;;;;;;7.60;6.00;;;;;;;;;;5070266;28;20228;-73
2021/01/05 10:57:11;;;;;;;9.98;7.15;;;;;;;;;;5080454;28;20175;-73
2021/01/05 10:59:40;;;;;;;8.52;6.95;;;;;;;;;;5090655;28;20240;-74
2021/01/05 11:02:08;;;;;;;8.38;7.57;;;;;;;;;;5079494;28;20200;-73
2021/01/05 11:04:35;;;;;;;7.45;6.70;;;;;;;;;;5082431;28;20203;-74
2021/01/05 11:07:02;;;;;;;8.20;6.32;;;;;;;;;;5080176;28;20652;-76
2021/01/05 11:09:29;;;;;;;7.45;6.60;;;;;;;;;;5076208;28;20191;-72
2021/01/05 11:11:55;;;;;;;6.22;5.63;;;;;;;;;;5071385;28;20955;-76
2021/01/05 11:14:22;;;;;;;6.85;6.22;;;;;;;;;;5078073;28;20198;-74
2021/01/05 11:16:49;;;;;;;7.28;5.88;;;;;;;;;;5085544;28;20199;-74
2021/01/05 11:19:15;;;;;;;6.53;5.60;;;;;;;;;;5089988;28;20175;-73
2021/01/05 11:21:41;;;;;;;6.30;5.70;;;;;;;;;;5090105;28;20238;-72
2021/01/05 11:24:08;;;;;;;6.70;6.00;;;;;;;;;;5089551;28;20682;-72
2021/01/05 11:26:35;;;;;;;7.95;5.75;;;;;;;;;;5088640;28;20246;-76
2021/01/05 11:29:01;;;;;;;6.60;6.00;;;;;;;;;;5084701;28;20592;-73
2021/01/05 11:31:27;;;;;;;7.00;5.32;;;;;;;;;;5071637;28;20204;-74
2021/01/05 11:33:53;;;;;;;5.05;4.63;;;;;;;;;;5073032;28;20180;-74
2021/01/05 11:36:29;;;;;;;6.32;5.65;;;;;;;;;;5082337;28;20572;-72
2021/01/05 11:38:56;;;;;;;7.93;5.10;;;;;;;;;;5090135;28;20190;-76
2021/01/05 11:41:22;;;;;;;5.82;5.32;;;;;;;;;;5081168;28;20202;-74
2021/01/05 11:43:48;;;;;;;5.95;5.35;;;;;;;;;;5091542;28;20187;-75
2021/01/05 11:46:14;;;;;;;7.32;5.60;;;;;;;;;;5090955;28;20183;-73
2021/01/05 11:48:40;;;;;;;5.10;4.60;;;;;;;;;;5077831;28;20182;-75
2021/01/05 11:51:06;;;;;;;5.25;4.75;;;;;;;;;;5089190;28;20203;-74
2021/01/05 11:53:32;;;;;;;4.55;4.15;;;;;;;;;;5088777;28;20183;-76
2021/01/05 11:55:58;;;;;;;5.10;4.57;;;;;;;;;;5089229;28;20982;-74
2021/01/05 11:58:24;;;;;;;4.93;4.40;;;;;;;;;;5090142;28;20180;-75
2021/01/05 12:00:50;;;;;;;5.32;4.82;;;;;;;;;;5089472;28;20195;-75
2021/01/05 12:03:16;;;;;;;5.28;4.78;;;;;;;;;;5074855;28;20186;-74
2021/01/05 12:05:43;;;;;;;5.43;4.30;;;;;;;;;;5078425;28;20543;-73
2021/01/05 12:08:09;;;;;;;5.30;4.80;;;;;;;;;;5072065;28;20188;-75
2021/01/05 12:10:35;;;;;;;4.15;3.75;;;;;;;;;;5082025;28;20215;-74
2021/01/05 12:13:01;;;;;;;5.22;4.50;;;;;;;;;;5070799;28;20184;-76
2021/01/05 12:15:27;;;;;;;4.88;4.40;;;;;;;;;;5070506;28;20223;-72
2021/01/05 12:17:53;;;;;;;5.05;4.55;;;;;;;;;;5075871;28;20182;-73
2021/01/05 12:20:19;;;;;;;6.25;4.85;;;;;;;;;;5089553;28;20668;-73
2021/01/05 12:22:45;;;;;;;5.47;4.53;;;;;;;;;;5071555;28;20195;-76
2021/01/05 12:25:12;;;;;;;4.72;4.30;;;;;;;;;;5078707;28;20183;-76
2021/01/05 12:27:38;;;;;;;4.95;4.45;;;;;;;;;;5072048;28;20195;-75
2021/01/05 12:30:04;;;;;;;5.75;5.07;;;;;;;;;;5088356;28;20186;-73
2021/01/05 12:32:30;;;;;;;4.97;4.47;;;;;;;;;;5071745;28;20184;-76
2021/01/05 12:34:56;;;;;;;5.20;4.53;;;;;;;;;;5086271;28;20211;-75
2021/01/05 12:37:25;;;;;;;5.05;4.40;;;;;;;;;;5089325;28;20176;-75
2021/01/05 12:39:51;;;;;;;4.50;4.10;;;;;;;;;;5081129;28;20191;-75
2021/01/05 12:42:21;;;;;;;4.53;4.13;;;;;;;;;;5089208;28;20171;-75
2021/01/05 12:44:49;;;;;;;6.15;4.30;;;;;;;;;;5087335;28;20660;-74
2021/01/05 12:47:15;;;;;;;5.97;4.57;;;;;;;;;;5084345;28;20190;-75
2021/01/05 12:49:41;;;;;;;4.50;4.10;;;;;;;;;;5089513;28;20183;-74
2021/01/05 12:52:12;;;;;;;6.13;4.30;;;;;;;;;;5086618;28;20568;-74
2021/01/05 12:54:39;;;;;;;4.30;3.90;;;;;;;;;;5089107;28;20251;-76
2021/01/05 12:57:06;;;;;;;4.70;3.80;;;;;;;;;;5088983;28;20175;-76
2021/01/05 12:59:32;;;;;;;4.93;4.15;;;;;;;;;;5089524;28;20183;-74
2021/01/05 13:02:00;;;;;;;4.80;4.25;;;;;;;;;;5088823;28;20702;-75
2021/01/05 13:04:26;;;;;;;6.20;5.28;;;;;;;;;;5074886;28;20192;-76
2021/01/05 13:06:53;;;;;;;5.97;4.50;;;;;;;;;;5077476;28;20231;-77
2021/01/05 13:09:19;;;;;;;4.20;3.80;;;;;;;;;;5081202;28;20183;-77
2021/01/05 13:11:46;;;;;;;4.10;3.70;;;;;;;;;;5082799;28;20714;-75
2021/01/05 13:14:16;;;;;;;4.30;3.90;;;;;;;;;;5088399;28;20575;-74
2021/01/05 13:16:43;;;;;;;5.53;3.97;;;;;;;;;;5084484;28;20214;-75
2021/01/05 13:19:11;;;;;;;7.78;4.38;;;;;;;;;;5080299;28;20656;-75
2021/01/05 13:21:42;;;;;;;4.60;4.18;;;;;;;;;;5068584;28;20192;-76
2021/01/05 13:24:09;;;;;;;5.65;4.80;;;;;;;;;;5070491;28;20180;-72
2021/01/05 13:26:36;;;;;;;7.50;4.40;;;;;;;;;;5068724;28;20892;-74
2021/01/05 13:29:02;;;;;;;4.70;4.28;;;;;;;;;;5079456;28;20311;-74
2021/01/05 13:31:42;;;;;;;4.20;3.80;;;;;;;;;;5088004;28;20552;-75
2021/01/05 13:34:08;;;;;;;5.70;4.45;;;;;;;;;;5082572;28;20198;-75
2021/01/05 13:36:34;;;;;;;5.07;4.07;;;;;;;;;;5091999;28;20185;-75
2021/01/05 13:39:00;;;;;;;8.25;4.90;;;;;;;;;;5092341;28;20195;-76
2021/01/05 13:41:28;;;;;;;5.55;4.95;;;;;;;;;;5075911;28;20628;-77
2021/01/05 13:43:54;;;;;;;6.72;5.07;;;;;;;;;;5080573;28;20178;-76
2021/01/05 13:46:30;;;;;;;5.95;4.40;;;;;;;;;;5076245;28;20179;-74
2021/01/05 13:48:57;;;;;;;5.75;5.07;;;;;;;;;;5081673;28;20545;-76
2021/01/05 13:51:28;;;;;;;6.05;4.88;;;;;;;;;;5076896;28;20223;-75
2021/01/05 13:53:54;;;;;;;6.50;4.80;;;;;;;;;;5077928;28;20187;-76
2021/01/05 13:56:20;;;;;;;5.93;4.95;;;;;;;;;;5075152;28;20226;-75
2021/01/05 13:58:46;;;;;;;10.68;7.32;;;;;;;;;;5091166;28;20209;-75
2021/01/05 14:01:13;;;;;;;7.43;4.97;;;;;;;;;;5091143;28;20199;-76
2021/01/05 14:03:39;;;;;;;7.00;4.07;;;;;;;;;;5091718;28;20203;-74
2021/01/05 14:06:05;;;;;;;5.30;4.40;;;;;;;;;;5091939;28;20183;-76
2021/01/05 14:08:31;;;;;;;4.80;4.30;;;;;;;;;;5092134;28;20592;-76
2021/01/05 14:10:57;;;;;;;5.00;4.50;;;;;;;;;;5091068;28;20203;-75
2021/01/05 14:13:23;;;;;;;5.15;4.60;;;;;;;;;;5091834;28;20190;-76
2021/01/05 14:15:49;;;;;;;6.38;5.30;;;;;;;;;;5076933;28;20212;-76
2021/01/05 14:18:15;;;;;;;4.80;4.10;;;;;;;;;;5079328;28;20981;-75
2021/01/05 14:20:41;;;;;;;5.72;4.57;;;;;;;;;;5089785;28;20202;-75
2021/01/05 14:23:07;;;;;;;7.57;5.93;;;;;;;;;;5083903;28;20187;-73
2021/01/05 14:25:33;;;;;;;5.25;4.75;;;;;;;;;;5076862;28;20172;-73
2021/01/05 14:27:59;;;;;;;8.43;4.65;;;;;;;;;;5090714;28;20186;-75
2021/01/05 14:30:25;;;;;;;7.35;4.70;;;;;;;;;;5086932;28;20211;-73
2021/01/05 14:32:51;;;;;;;5.20;4.70;;;;;;;;;;5091187;28;20183;-75
2021/01/05 14:35:17;;;;;;;6.57;4.82;;;;;;;;;;5090662;28;20207;-75
2021/01/05 14:37:43;;;;;;;7.32;4.90;;;;;;;;;;5084353;28;20207;-72
2021/01/05 14:40:10;;;;;;;5.13;4.72;;;;;;;;;;5084334;28;20646;-76
2021/01/05 14:42:36;;;;;;;6.18;4.70;;;;;;;;;;5088927;28;20180;-77
2021/01/05 14:45:02;;;;;;;5.30;4.80;;;;;;;;;;5089759;28;20183;-75